sensor_id;sensor_type;location;lat;lon;timestamp;P1;durP1;ratioP1;P2;durP2;ratioP2
10890;SDS011;5498;50.928;11.598;2023-03-31T00:01:21;660.57;;;430.50;;
10890;SDS011;5498;50.928;11.598;2023-03-31T00:04:23;656.73;;;427.00;;
10890;SDS011;5498;50.928;11.598;2023-03-31T00:07:25;654.40;;;428.80;;
10890;SDS011;5498;50.928;11.598;2023-03-31T00:10:27;654.10;;;425.23;;
10890;SDS011;5498;50.928;11.598;2023-03-31T00:13:32;666.17;;;436.80;;
10890;SDS011;5498;50.928;11.598;2023-03-31T00:16:37;669.83;;;434.63;;
10890;SDS011;5498;50.928;11.598;2023-03-31T00:19:39;678.67;;;461.77;;
10890;SDS011;5498;50.928;11.598;2023-03-31T00:22:41;645.67;;;398.60;;
10890;SDS011;5498;50.928;11.598;2023-03-31T00:25:46;655.73;;;426.47;;
10890;SDS011;5498;50.928;11.598;2023-03-31T00:28:48;647.83;;;399.70;;
10890;SDS011;5498;50.928;11.598;2023-03-31T00:31:51;648.07;;;402.07;;
10890;SDS011;5498;50.928;11.598;2023-03-31T00:34:54;645.03;;;401.67;;
10890;SDS011;5498;50.928;11.598;2023-03-31T00:37:56;639.50;;;393.50;;
10890;SDS011;5498;50.928;11.598;2023-03-31T00:41:00;643.60;;;410.47;;
10890;SDS011;5498;50.928;11.598;2023-03-31T00:44:08;654.17;;;416.73;;
10890;SDS011;5498;50.928;11.598;2023-03-31T00:47:15;645.30;;;409.70;;
10890;SDS011;5498;50.928;11.598;2023-03-31T00:50:21;636.13;;;402.17;;
10890;SDS011;5498;50.928;11.598;2023-03-31T00:53:28;631.70;;;392.47;;
10890;SDS011;5498;50.928;11.598;2023-03-31T00:56:33;625.00;;;371.73;;
10890;SDS011;5498;50.928;11.598;2023-03-31T00:59:38;632.77;;;391.27;;
10890;SDS011;5498;50.928;11.598;2023-03-31T01:02:47;629.80;;;395.87;;
10890;SDS011;5498;50.928;11.598;2023-03-31T01:05:55;638.47;;;411.10;;
10890;SDS011;5498;50.928;11.598;2023-03-31T01:09:00;639.67;;;426.20;;
10890;SDS011;5498;50.928;11.598;2023-03-31T01:12:06;629.23;;;396.73;;
10890;SDS011;5498;50.928;11.598;2023-03-31T01:15:10;629.37;;;392.13;;
10890;SDS011;5498;50.928;11.598;2023-03-31T01:18:14;630.63;;;400.17;;
10890;SDS011;5498;50.928;11.598;2023-03-31T01:25:14;631.93;;;402.73;;
10890;SDS011;5498;50.928;11.598;2023-03-31T01:28:45;628.70;;;381.87;;
10890;SDS011;5498;50.928;11.598;2023-03-31T01:32:00;625.37;;;376.43;;
10890;SDS011;5498;50.928;11.598;2023-03-31T01:35:28;628.57;;;385.67;;
10890;SDS011;5498;50.928;11.598;2023-03-31T01:39:13;625.77;;;380.53;;
10890;SDS011;5498;50.928;11.598;2023-03-31T01:42:36;642.40;;;420.27;;
10890;SDS011;5498;50.928;11.598;2023-03-31T01:45:46;635.77;;;402.83;;
10890;SDS011;5498;50.928;11.598;2023-03-31T01:48:58;635.33;;;410.13;;
10890;SDS011;5498;50.928;11.598;2023-03-31T01:52:05;620.47;;;355.17;;
10890;SDS011;5498;50.928;11.598;2023-03-31T01:55:17;632.17;;;381.97;;
10890;SDS011;5498;50.928;11.598;2023-03-31T01:58:26;635.60;;;409.43;;
10890;SDS011;5498;50.928;11.598;2023-03-31T02:01:33;636.13;;;409.57;;
10890;SDS011;5498;50.928;11.598;2023-03-31T02:04:40;637.40;;;397.93;;
10890;SDS011;5498;50.928;11.598;2023-03-31T02:07:47;636.70;;;410.57;;
10890;SDS011;5498;50.928;11.598;2023-03-31T02:10:52;634.57;;;390.77;;
10890;SDS011;5498;50.928;11.598;2023-03-31T02:13:56;637.83;;;407.83;;
10890;SDS011;5498;50.928;11.598;2023-03-31T02:17:01;629.13;;;403.00;;
10890;SDS011;5498;50.928;11.598;2023-03-31T02:20:08;629.33;;;395.83;;
10890;SDS011;5498;50.928;11.598;2023-03-31T02:23:14;630.87;;;406.60;;
10890;SDS011;5498;50.928;11.598;2023-03-31T02:26:21;626.10;;;401.60;;
10890;SDS011;5498;50.928;11.598;2023-03-31T02:29:27;624.07;;;386.67;;
10890;SDS011;5498;50.928;11.598;2023-03-31T02:32:31;629.73;;;395.00;;
10890;SDS011;5498;50.928;11.598;2023-03-31T02:35:36;622.27;;;384.93;;
10890;SDS011;5498;50.928;11.598;2023-03-31T02:38:44;621.13;;;362.87;;
10890;SDS011;5498;50.928;11.598;2023-03-31T02:41:50;626.00;;;384.37;;
10890;SDS011;5498;50.928;11.598;2023-03-31T02:44:53;623.20;;;379.53;;
10890;SDS011;5498;50.928;11.598;2023-03-31T02:48:02;631.67;;;407.57;;
10890;SDS011;5498;50.928;11.598;2023-03-31T02:51:10;623.33;;;388.73;;
10890;SDS011;5498;50.928;11.598;2023-03-31T02:54:47;626.93;;;400.53;;
10890;SDS011;5498;50.928;11.598;2023-03-31T02:58:20;631.63;;;412.17;;
10890;SDS011;5498;50.928;11.598;2023-03-31T03:01:52;638.43;;;423.43;;
10890;SDS011;5498;50.928;11.598;2023-03-31T03:05:11;635.33;;;425.47;;
10890;SDS011;5498;50.928;11.598;2023-03-31T03:08:26;634.20;;;417.87;;
10890;SDS011;5498;50.928;11.598;2023-03-31T03:11:38;633.73;;;418.20;;
10890;SDS011;5498;50.928;11.598;2023-03-31T03:14:49;638.67;;;431.47;;
10890;SDS011;5498;50.928;11.598;2023-03-31T03:17:58;638.03;;;422.27;;
10890;SDS011;5498;50.928;11.598;2023-03-31T03:21:00;644.83;;;436.73;;
10890;SDS011;5498;50.928;11.598;2023-03-31T03:24:02;631.63;;;401.73;;
10890;SDS011;5498;50.928;11.598;2023-03-31T03:27:04;629.47;;;394.73;;
10890;SDS011;5498;50.928;11.598;2023-03-31T03:30:07;635.40;;;409.67;;
10890;SDS011;5498;50.928;11.598;2023-03-31T03:33:13;636.80;;;397.30;;
10890;SDS011;5498;50.928;11.598;2023-03-31T03:36:16;644.13;;;421.83;;
10890;SDS011;5498;50.928;11.598;2023-03-31T03:39:18;643.50;;;404.97;;
10890;SDS011;5498;50.928;11.598;2023-03-31T03:42:21;651.30;;;426.37;;
10890;SDS011;5498;50.928;11.598;2023-03-31T03:45:23;659.50;;;434.90;;
10890;SDS011;5498;50.928;11.598;2023-03-31T03:48:26;649.40;;;406.37;;
10890;SDS011;5498;50.928;11.598;2023-03-31T03:51:28;659.57;;;428.87;;
10890;SDS011;5498;50.928;11.598;2023-03-31T03:54:30;647.90;;;410.23;;
10890;SDS011;5498;50.928;11.598;2023-03-31T03:57:32;662.73;;;434.30;;
10890;SDS011;5498;50.928;11.598;2023-03-31T04:00:34;660.80;;;430.60;;
10890;SDS011;5498;50.928;11.598;2023-03-31T04:03:37;655.53;;;431.10;;
10890;SDS011;5498;50.928;11.598;2023-03-31T04:06:39;654.23;;;435.73;;
10890;SDS011;5498;50.928;11.598;2023-03-31T04:09:41;649.60;;;423.03;;
10890;SDS011;5498;50.928;11.598;2023-03-31T04:12:42;656.33;;;438.73;;
10890;SDS011;5498;50.928;11.598;2023-03-31T04:15:44;651.90;;;429.97;;
10890;SDS011;5498;50.928;11.598;2023-03-31T04:18:47;648.10;;;431.90;;
10890;SDS011;5498;50.928;11.598;2023-03-31T04:21:49;661.23;;;462.20;;
10890;SDS011;5498;50.928;11.598;2023-03-31T04:24:57;654.90;;;439.97;;
10890;SDS011;5498;50.928;11.598;2023-03-31T04:27:59;666.03;;;469.90;;
10890;SDS011;5498;50.928;11.598;2023-03-31T04:31:01;656.10;;;443.70;;
10890;SDS011;5498;50.928;11.598;2023-03-31T04:34:07;656.50;;;455.57;;
10890;SDS011;5498;50.928;11.598;2023-03-31T04:37:12;660.93;;;467.23;;
10890;SDS011;5498;50.928;11.598;2023-03-31T04:40:14;662.10;;;466.97;;
10890;SDS011;5498;50.928;11.598;2023-03-31T04:43:16;657.17;;;466.93;;
10890;SDS011;5498;50.928;11.598;2023-03-31T04:46:19;655.23;;;446.60;;
10890;SDS011;5498;50.928;11.598;2023-03-31T04:49:23;651.50;;;442.23;;
10890;SDS011;5498;50.928;11.598;2023-03-31T04:52:25;650.53;;;435.70;;
10890;SDS011;5498;50.928;11.598;2023-03-31T04:55:26;647.00;;;428.77;;
10890;SDS011;5498;50.928;11.598;2023-03-31T04:58:28;657.47;;;457.60;;
10890;SDS011;5498;50.928;11.598;2023-03-31T05:01:31;655.33;;;448.73;;
10890;SDS011;5498;50.928;11.598;2023-03-31T05:04:36;652.97;;;447.33;;
10890;SDS011;5498;50.928;11.598;2023-03-31T05:07:38;645.93;;;434.23;;
10890;SDS011;5498;50.928;11.598;2023-03-31T05:10:40;651.23;;;443.90;;
10890;SDS011;5498;50.928;11.598;2023-03-31T05:13:42;657.27;;;453.73;;
10890;SDS011;5498;50.928;11.598;2023-03-31T05:16:43;651.80;;;431.87;;
10890;SDS011;5498;50.928;11.598;2023-03-31T05:19:47;645.63;;;416.87;;
10890;SDS011;5498;50.928;11.598;2023-03-31T05:22:49;647.83;;;408.47;;
10890;SDS011;5498;50.928;11.598;2023-03-31T05:25:52;646.50;;;414.77;;
10890;SDS011;5498;50.928;11.598;2023-03-31T05:28:53;645.00;;;419.43;;
10890;SDS011;5498;50.928;11.598;2023-03-31T05:31:55;639.87;;;396.97;;
10890;SDS011;5498;50.928;11.598;2023-03-31T05:34:59;645.30;;;414.47;;
10890;SDS011;5498;50.928;11.598;2023-03-31T05:38:07;639.03;;;404.20;;
10890;SDS011;5498;50.928;11.598;2023-03-31T05:41:09;636.67;;;401.10;;
10890;SDS011;5498;50.928;11.598;2023-03-31T05:44:11;641.40;;;417.90;;
10890;SDS011;5498;50.928;11.598;2023-03-31T05:47:13;646.10;;;423.10;;
10890;SDS011;5498;50.928;11.598;2023-03-31T05:50:17;641.77;;;425.87;;
10890;SDS011;5498;50.928;11.598;2023-03-31T05:53:19;655.17;;;464.80;;
10890;SDS011;5498;50.928;11.598;2023-03-31T05:56:21;643.87;;;406.63;;
10890;SDS011;5498;50.928;11.598;2023-03-31T05:59:23;652.90;;;447.77;;
10890;SDS011;5498;50.928;11.598;2023-03-31T06:02:25;649.60;;;440.00;;
10890;SDS011;5498;50.928;11.598;2023-03-31T06:05:29;652.20;;;439.93;;
10890;SDS011;5498;50.928;11.598;2023-03-31T06:08:31;654.10;;;445.43;;
10890;SDS011;5498;50.928;11.598;2023-03-31T06:11:33;654.33;;;435.57;;
10890;SDS011;5498;50.928;11.598;2023-03-31T06:14:35;657.10;;;461.70;;
10890;SDS011;5498;50.928;11.598;2023-03-31T06:17:36;645.73;;;405.73;;
10890;SDS011;5498;50.928;11.598;2023-03-31T06:20:40;643.97;;;406.50;;
10890;SDS011;5498;50.928;11.598;2023-03-31T06:23:42;646.10;;;404.20;;
10890;SDS011;5498;50.928;11.598;2023-03-31T06:26:45;636.43;;;390.83;;
10890;SDS011;5498;50.928;11.598;2023-03-31T06:29:46;637.63;;;402.70;;
10890;SDS011;5498;50.928;11.598;2023-03-31T06:32:49;645.83;;;411.80;;
10890;SDS011;5498;50.928;11.598;2023-03-31T06:35:52;640.17;;;403.97;;
10890;SDS011;5498;50.928;11.598;2023-03-31T06:38:56;651.63;;;428.43;;
10890;SDS011;5498;50.928;11.598;2023-03-31T06:41:58;654.70;;;440.83;;
10890;SDS011;5498;50.928;11.598;2023-03-31T06:45:00;650.03;;;434.73;;
10890;SDS011;5498;50.928;11.598;2023-03-31T06:48:02;644.03;;;420.10;;
10890;SDS011;5498;50.928;11.598;2023-03-31T06:51:06;671.27;;;491.20;;
10890;SDS011;5498;50.928;11.598;2023-03-31T06:54:08;675.23;;;472.93;;
10890;SDS011;5498;50.928;11.598;2023-03-31T06:57:10;657.73;;;457.43;;
10890;SDS011;5498;50.928;11.598;2023-03-31T07:00:13;652.83;;;439.53;;
10890;SDS011;5498;50.928;11.598;2023-03-31T07:03:16;657.83;;;450.53;;
10890;SDS011;5498;50.928;11.598;2023-03-31T07:06:22;658.07;;;456.30;;
10890;SDS011;5498;50.928;11.598;2023-03-31T07:09:24;663.40;;;468.80;;
10890;SDS011;5498;50.928;11.598;2023-03-31T07:12:26;661.67;;;452.37;;
10890;SDS011;5498;50.928;11.598;2023-03-31T07:15:29;662.97;;;468.43;;
10890;SDS011;5498;50.928;11.598;2023-03-31T07:18:31;661.30;;;461.07;;
10890;SDS011;5498;50.928;11.598;2023-03-31T07:21:35;664.87;;;476.43;;
10890;SDS011;5498;50.928;11.598;2023-03-31T07:24:37;666.87;;;472.00;;
10890;SDS011;5498;50.928;11.598;2023-03-31T07:27:39;662.77;;;459.83;;
10890;SDS011;5498;50.928;11.598;2023-03-31T07:30:41;664.37;;;465.27;;
10890;SDS011;5498;50.928;11.598;2023-03-31T07:33:42;668.27;;;473.37;;
10890;SDS011;5498;50.928;11.598;2023-03-31T07:36:46;670.60;;;481.60;;
10890;SDS011;5498;50.928;11.598;2023-03-31T07:39:47;669.57;;;482.57;;
10890;SDS011;5498;50.928;11.598;2023-03-31T07:42:50;670.97;;;469.30;;
10890;SDS011;5498;50.928;11.598;2023-03-31T07:45:52;668.17;;;471.67;;
10890;SDS011;5498;50.928;11.598;2023-03-31T07:48:54;671.23;;;481.00;;
10890;SDS011;5498;50.928;11.598;2023-03-31T07:51:58;674.87;;;487.97;;
10890;SDS011;5498;50.928;11.598;2023-03-31T07:55:00;679.13;;;493.50;;
10890;SDS011;5498;50.928;11.598;2023-03-31T07:58:03;668.83;;;477.70;;
10890;SDS011;5498;50.928;11.598;2023-03-31T08:01:05;677.07;;;485.50;;
10890;SDS011;5498;50.928;11.598;2023-03-31T08:04:08;678.40;;;490.90;;
10890;SDS011;5498;50.928;11.598;2023-03-31T08:07:11;671.70;;;479.03;;
10890;SDS011;5498;50.928;11.598;2023-03-31T08:10:16;673.83;;;483.90;;
10890;SDS011;5498;50.928;11.598;2023-03-31T08:13:22;675.47;;;492.03;;
10890;SDS011;5498;50.928;11.598;2023-03-31T08:16:24;675.33;;;489.23;;
10890;SDS011;5498;50.928;11.598;2023-03-31T08:19:26;670.67;;;485.47;;
10890;SDS011;5498;50.928;11.598;2023-03-31T08:22:29;671.37;;;483.93;;
10890;SDS011;5498;50.928;11.598;2023-03-31T08:25:31;668.73;;;471.17;;
10890;SDS011;5498;50.928;11.598;2023-03-31T08:28:33;666.93;;;466.80;;
10890;SDS011;5498;50.928;11.598;2023-03-31T08:31:35;662.23;;;467.20;;
10890;SDS011;5498;50.928;11.598;2023-03-31T08:34:36;655.13;;;452.30;;
10890;SDS011;5498;50.928;11.598;2023-03-31T08:37:42;661.77;;;470.63;;
10890;SDS011;5498;50.928;11.598;2023-03-31T08:40:44;652.43;;;444.10;;
10890;SDS011;5498;50.928;11.598;2023-03-31T08:43:46;660.90;;;462.47;;
10890;SDS011;5498;50.928;11.598;2023-03-31T08:46:49;649.73;;;437.23;;
10890;SDS011;5498;50.928;11.598;2023-03-31T08:49:54;669.07;;;481.53;;
10890;SDS011;5498;50.928;11.598;2023-03-31T08:53:02;667.00;;;478.87;;
10890;SDS011;5498;50.928;11.598;2023-03-31T08:56:07;672.07;;;484.60;;
10890;SDS011;5498;50.928;11.598;2023-03-31T08:59:17;665.23;;;486.37;;
10890;SDS011;5498;50.928;11.598;2023-03-31T09:02:28;685.03;;;504.53;;
10890;SDS011;5498;50.928;11.598;2023-03-31T09:05:52;683.50;;;508.47;;
10890;SDS011;5498;50.928;11.598;2023-03-31T09:09:02;676.33;;;492.97;;
10890;SDS011;5498;50.928;11.598;2023-03-31T09:12:12;681.63;;;498.47;;
10890;SDS011;5498;50.928;11.598;2023-03-31T09:15:21;673.87;;;486.77;;
10890;SDS011;5498;50.928;11.598;2023-03-31T09:18:28;676.47;;;492.53;;
10890;SDS011;5498;50.928;11.598;2023-03-31T09:21:34;676.50;;;499.87;;
10890;SDS011;5498;50.928;11.598;2023-03-31T09:24:46;670.23;;;483.23;;
10890;SDS011;5498;50.928;11.598;2023-03-31T09:27:56;669.37;;;477.53;;
10890;SDS011;5498;50.928;11.598;2023-03-31T09:31:01;675.23;;;495.87;;
10890;SDS011;5498;50.928;11.598;2023-03-31T09:34:14;667.67;;;485.57;;
10890;SDS011;5498;50.928;11.598;2023-03-31T09:37:22;667.73;;;474.80;;
10890;SDS011;5498;50.928;11.598;2023-03-31T09:40:29;665.60;;;477.20;;
10890;SDS011;5498;50.928;11.598;2023-03-31T09:43:31;664.33;;;463.97;;
10890;SDS011;5498;50.928;11.598;2023-03-31T09:46:35;666.10;;;475.73;;
10890;SDS011;5498;50.928;11.598;2023-03-31T09:49:37;663.27;;;469.63;;
10890;SDS011;5498;50.928;11.598;2023-03-31T09:52:42;670.30;;;485.83;;
10890;SDS011;5498;50.928;11.598;2023-03-31T09:55:48;673.87;;;507.97;;
10890;SDS011;5498;50.928;11.598;2023-03-31T09:58:55;665.77;;;484.20;;
10890;SDS011;5498;50.928;11.598;2023-03-31T10:02:03;662.10;;;470.97;;
10890;SDS011;5498;50.928;11.598;2023-03-31T10:05:28;660.60;;;474.43;;
10890;SDS011;5498;50.928;11.598;2023-03-31T10:08:33;664.13;;;481.77;;
10890;SDS011;5498;50.928;11.598;2023-03-31T10:11:51;664.30;;;473.57;;
10890;SDS011;5498;50.928;11.598;2023-03-31T10:15:13;659.00;;;466.60;;
10890;SDS011;5498;50.928;11.598;2023-03-31T10:18:20;660.23;;;467.60;;
10890;SDS011;5498;50.928;11.598;2023-03-31T10:21:35;663.43;;;471.40;;
10890;SDS011;5498;50.928;11.598;2023-03-31T10:24:38;661.67;;;474.73;;
10890;SDS011;5498;50.928;11.598;2023-03-31T10:27:43;659.27;;;464.90;;
10890;SDS011;5498;50.928;11.598;2023-03-31T10:30:49;667.07;;;479.03;;
10890;SDS011;5498;50.928;11.598;2023-03-31T10:33:54;664.73;;;491.30;;
10890;SDS011;5498;50.928;11.598;2023-03-31T10:36:57;659.80;;;476.53;;
10890;SDS011;5498;50.928;11.598;2023-03-31T10:40:00;662.90;;;475.50;;
10890;SDS011;5498;50.928;11.598;2023-03-31T10:43:15;665.97;;;475.37;;
10890;SDS011;5498;50.928;11.598;2023-03-31T10:46:19;663.77;;;471.70;;
10890;SDS011;5498;50.928;11.598;2023-03-31T10:49:40;661.63;;;470.60;;
10890;SDS011;5498;50.928;11.598;2023-03-31T10:52:44;660.87;;;466.63;;
10890;SDS011;5498;50.928;11.598;2023-03-31T10:55:54;667.80;;;474.53;;
10890;SDS011;5498;50.928;11.598;2023-03-31T10:59:22;664.90;;;478.93;;
10890;SDS011;5498;50.928;11.598;2023-03-31T11:02:57;659.03;;;454.60;;
10890;SDS011;5498;50.928;11.598;2023-03-31T11:06:45;660.93;;;460.57;;
10890;SDS011;5498;50.928;11.598;2023-03-31T11:10:00;662.57;;;473.47;;
10890;SDS011;5498;50.928;11.598;2023-03-31T11:13:25;660.80;;;471.73;;
10890;SDS011;5498;50.928;11.598;2023-03-31T11:16:37;658.63;;;465.90;;
10890;SDS011;5498;50.928;11.598;2023-03-31T11:19:49;663.77;;;480.77;;
10890;SDS011;5498;50.928;11.598;2023-03-31T11:23:01;661.13;;;471.83;;
10890;SDS011;5498;50.928;11.598;2023-03-31T11:26:11;658.07;;;464.40;;
10890;SDS011;5498;50.928;11.598;2023-03-31T11:29:24;664.27;;;481.53;;
10890;SDS011;5498;50.928;11.598;2023-03-31T11:32:39;665.30;;;485.50;;
10890;SDS011;5498;50.928;11.598;2023-03-31T11:35:53;661.30;;;475.53;;
10890;SDS011;5498;50.928;11.598;2023-03-31T11:39:20;664.50;;;492.93;;
10890;SDS011;5498;50.928;11.598;2023-03-31T11:42:36;664.03;;;491.63;;
10890;SDS011;5498;50.928;11.598;2023-03-31T11:45:50;666.53;;;500.23;;
10890;SDS011;5498;50.928;11.598;2023-03-31T11:48:58;668.20;;;507.57;;
10890;SDS011;5498;50.928;11.598;2023-03-31T11:52:05;664.73;;;491.13;;
10890;SDS011;5498;50.928;11.598;2023-03-31T11:55:14;670.43;;;518.13;;
10890;SDS011;5498;50.928;11.598;2023-03-31T11:58:21;656.67;;;486.13;;
10890;SDS011;5498;50.928;11.598;2023-03-31T12:01:29;653.60;;;474.73;;
10890;SDS011;5498;50.928;11.598;2023-03-31T12:04:44;650.23;;;475.70;;
10890;SDS011;5498;50.928;11.598;2023-03-31T12:07:51;655.57;;;491.63;;
10890;SDS011;5498;50.928;11.598;2023-03-31T12:11:02;661.70;;;515.97;;
10890;SDS011;5498;50.928;11.598;2023-03-31T12:17:35;671.23;;;552.27;;
10890;SDS011;5498;50.928;11.598;2023-03-31T12:20:43;660.60;;;523.80;;
10890;SDS011;5498;50.928;11.598;2023-03-31T12:23:53;687.47;;;591.27;;
10890;SDS011;5498;50.928;11.598;2023-03-31T12:26:58;674.10;;;565.60;;
10890;SDS011;5498;50.928;11.598;2023-03-31T12:30:06;694.87;;;614.90;;
10890;SDS011;5498;50.928;11.598;2023-03-31T12:33:14;686.80;;;591.93;;
10890;SDS011;5498;50.928;11.598;2023-03-31T12:36:25;689.23;;;601.70;;
10890;SDS011;5498;50.928;11.598;2023-03-31T12:39:44;710.27;;;632.37;;
10890;SDS011;5498;50.928;11.598;2023-03-31T12:43:04;686.97;;;603.80;;
10890;SDS011;5498;50.928;11.598;2023-03-31T12:46:32;718.87;;;641.13;;
10890;SDS011;5498;50.928;11.598;2023-03-31T12:49:57;721.80;;;643.70;;
10890;SDS011;5498;50.928;11.598;2023-03-31T12:53:20;728.80;;;650.50;;
10890;SDS011;5498;50.928;11.598;2023-03-31T13:00:21;706.47;;;629.40;;
10890;SDS011;5498;50.928;11.598;2023-03-31T13:03:35;718.47;;;640.70;;
10890;SDS011;5498;50.928;11.598;2023-03-31T13:07:11;747.73;;;668.93;;
10890;SDS011;5498;50.928;11.598;2023-03-31T13:10:49;686.70;;;607.90;;
10890;SDS011;5498;50.928;11.598;2023-03-31T13:13:58;677.33;;;594.30;;
10890;SDS011;5498;50.928;11.598;2023-03-31T13:17:10;664.70;;;565.27;;
10890;SDS011;5498;50.928;11.598;2023-03-31T13:20:24;702.17;;;625.50;;
10890;SDS011;5498;50.928;11.598;2023-03-31T13:23:34;701.80;;;625.03;;
10890;SDS011;5498;50.928;11.598;2023-03-31T13:26:39;708.90;;;631.90;;
10890;SDS011;5498;50.928;11.598;2023-03-31T13:29:46;708.40;;;631.13;;
10890;SDS011;5498;50.928;11.598;2023-03-31T13:33:00;685.93;;;605.70;;
10890;SDS011;5498;50.928;11.598;2023-03-31T13:36:18;686.60;;;607.57;;
10890;SDS011;5498;50.928;11.598;2023-03-31T13:39:55;679.13;;;588.93;;
10890;SDS011;5498;50.928;11.598;2023-03-31T13:43:30;687.00;;;600.47;;
10890;SDS011;5498;50.928;11.598;2023-03-31T13:46:49;682.07;;;601.57;;
10890;SDS011;5498;50.928;11.598;2023-03-31T13:54:14;669.83;;;561.83;;
10890;SDS011;5498;50.928;11.598;2023-03-31T13:58:12;660.60;;;524.93;;
10890;SDS011;5498;50.928;11.598;2023-03-31T14:01:39;663.33;;;536.57;;
10890;SDS011;5498;50.928;11.598;2023-03-31T14:05:06;654.10;;;513.07;;
10890;SDS011;5498;50.928;11.598;2023-03-31T14:08:32;670.00;;;557.47;;
10890;SDS011;5498;50.928;11.598;2023-03-31T14:11:46;657.40;;;527.03;;
10890;SDS011;5498;50.928;11.598;2023-03-31T14:15:00;652.77;;;508.90;;
10890;SDS011;5498;50.928;11.598;2023-03-31T14:18:03;652.93;;;513.80;;
10890;SDS011;5498;50.928;11.598;2023-03-31T14:21:09;660.80;;;530.90;;
10890;SDS011;5498;50.928;11.598;2023-03-31T14:24:21;656.57;;;530.63;;
10890;SDS011;5498;50.928;11.598;2023-03-31T14:27:36;660.23;;;530.30;;
10890;SDS011;5498;50.928;11.598;2023-03-31T14:30:52;660.33;;;526.73;;
10890;SDS011;5498;50.928;11.598;2023-03-31T14:34:17;656.30;;;524.77;;
10890;SDS011;5498;50.928;11.598;2023-03-31T14:37:50;663.53;;;540.33;;
10890;SDS011;5498;50.928;11.598;2023-03-31T14:40:52;663.53;;;545.70;;
10890;SDS011;5498;50.928;11.598;2023-03-31T14:44:00;654.20;;;519.47;;
10890;SDS011;5498;50.928;11.598;2023-03-31T14:47:05;655.37;;;521.83;;
10890;SDS011;5498;50.928;11.598;2023-03-31T14:50:14;658.80;;;531.97;;
10890;SDS011;5498;50.928;11.598;2023-03-31T14:53:21;657.37;;;525.80;;
10890;SDS011;5498;50.928;11.598;2023-03-31T14:56:26;656.60;;;528.43;;
10890;SDS011;5498;50.928;11.598;2023-03-31T14:59:35;651.83;;;509.47;;
10890;SDS011;5498;50.928;11.598;2023-03-31T15:02:41;652.13;;;512.17;;
10890;SDS011;5498;50.928;11.598;2023-03-31T15:05:45;653.03;;;519.47;;
10890;SDS011;5498;50.928;11.598;2023-03-31T15:08:47;657.63;;;519.40;;
10890;SDS011;5498;50.928;11.598;2023-03-31T15:11:53;650.43;;;515.93;;
10890;SDS011;5498;50.928;11.598;2023-03-31T15:14:59;656.53;;;525.07;;
10890;SDS011;5498;50.928;11.598;2023-03-31T15:18:08;651.30;;;502.03;;
10890;SDS011;5498;50.928;11.598;2023-03-31T15:21:18;672.37;;;570.80;;
10890;SDS011;5498;50.928;11.598;2023-03-31T15:24:20;661.83;;;542.37;;
10890;SDS011;5498;50.928;11.598;2023-03-31T15:27:26;657.33;;;522.73;;
10890;SDS011;5498;50.928;11.598;2023-03-31T15:30:34;653.03;;;514.57;;
10890;SDS011;5498;50.928;11.598;2023-03-31T15:33:38;652.80;;;515.37;;
10890;SDS011;5498;50.928;11.598;2023-03-31T15:36:41;662.47;;;544.10;;
10890;SDS011;5498;50.928;11.598;2023-03-31T15:39:43;660.00;;;544.00;;
10890;SDS011;5498;50.928;11.598;2023-03-31T15:42:47;649.07;;;500.77;;
10890;SDS011;5498;50.928;11.598;2023-03-31T15:45:51;645.47;;;491.47;;
10890;SDS011;5498;50.928;11.598;2023-03-31T15:48:55;661.93;;;527.57;;
10890;SDS011;5498;50.928;11.598;2023-03-31T15:51:58;656.57;;;520.93;;
10890;SDS011;5498;50.928;11.598;2023-03-31T15:55:18;658.10;;;544.20;;
10890;SDS011;5498;50.928;11.598;2023-03-31T15:58:44;655.40;;;524.73;;
10890;SDS011;5498;50.928;11.598;2023-03-31T16:01:54;662.93;;;549.53;;
10890;SDS011;5498;50.928;11.598;2023-03-31T16:05:00;656.53;;;531.47;;
10890;SDS011;5498;50.928;11.598;2023-03-31T16:08:03;656.03;;;535.27;;
10890;SDS011;5498;50.928;11.598;2023-03-31T16:11:12;661.77;;;547.03;;
10890;SDS011;5498;50.928;11.598;2023-03-31T16:14:19;662.67;;;556.77;;
10890;SDS011;5498;50.928;11.598;2023-03-31T16:17:27;656.73;;;540.50;;
10890;SDS011;5498;50.928;11.598;2023-03-31T16:20:34;664.97;;;553.00;;
10890;SDS011;5498;50.928;11.598;2023-03-31T16:23:40;663.23;;;550.93;;
10890;SDS011;5498;50.928;11.598;2023-03-31T16:26:44;655.27;;;533.07;;
10890;SDS011;5498;50.928;11.598;2023-03-31T16:29:47;646.37;;;496.87;;
10890;SDS011;5498;50.928;11.598;2023-03-31T16:32:58;665.83;;;566.33;;
10890;SDS011;5498;50.928;11.598;2023-03-31T16:36:03;661.23;;;554.40;;
10890;SDS011;5498;50.928;11.598;2023-03-31T16:39:07;659.63;;;544.63;;
10890;SDS011;5498;50.928;11.598;2023-03-31T16:42:09;650.23;;;517.20;;
10890;SDS011;5498;50.928;11.598;2023-03-31T16:45:11;658.20;;;543.63;;
10890;SDS011;5498;50.928;11.598;2023-03-31T16:48:13;658.00;;;544.20;;
10890;SDS011;5498;50.928;11.598;2023-03-31T16:51:17;658.90;;;538.17;;
10890;SDS011;5498;50.928;11.598;2023-03-31T16:54:20;655.77;;;538.50;;
10890;SDS011;5498;50.928;11.598;2023-03-31T16:57:22;654.30;;;521.40;;
10890;SDS011;5498;50.928;11.598;2023-03-31T17:00:24;647.83;;;502.53;;
10890;SDS011;5498;50.928;11.598;2023-03-31T17:03:26;655.00;;;516.97;;
10890;SDS011;5498;50.928;11.598;2023-03-31T17:06:29;653.73;;;524.63;;
10890;SDS011;5498;50.928;11.598;2023-03-31T17:09:31;665.00;;;564.47;;
10890;SDS011;5498;50.928;11.598;2023-03-31T17:12:33;655.03;;;524.77;;
10890;SDS011;5498;50.928;11.598;2023-03-31T17:15:35;648.87;;;506.33;;
10890;SDS011;5498;50.928;11.598;2023-03-31T17:18:37;652.87;;;515.87;;
10890;SDS011;5498;50.928;11.598;2023-03-31T17:21:41;653.57;;;525.37;;
10890;SDS011;5498;50.928;11.598;2023-03-31T17:24:43;653.97;;;517.77;;
10890;SDS011;5498;50.928;11.598;2023-03-31T17:27:45;652.67;;;514.00;;
10890;SDS011;5498;50.928;11.598;2023-03-31T17:30:47;652.80;;;512.77;;
10890;SDS011;5498;50.928;11.598;2023-03-31T17:33:49;651.30;;;514.93;;
10890;SDS011;5498;50.928;11.598;2023-03-31T17:36:52;650.37;;;512.20;;
10890;SDS011;5498;50.928;11.598;2023-03-31T17:39:56;651.07;;;505.40;;
10890;SDS011;5498;50.928;11.598;2023-03-31T17:42:57;655.53;;;513.23;;
10890;SDS011;5498;50.928;11.598;2023-03-31T17:46:02;653.30;;;515.27;;
10890;SDS011;5498;50.928;11.598;2023-03-31T17:49:05;658.10;;;533.13;;
10890;SDS011;5498;50.928;11.598;2023-03-31T17:52:08;648.73;;;499.80;;
10890;SDS011;5498;50.928;11.598;2023-03-31T17:55:10;647.93;;;504.10;;
10890;SDS011;5498;50.928;11.598;2023-03-31T17:58:13;644.40;;;478.03;;
10890;SDS011;5498;50.928;11.598;2023-03-31T18:01:15;656.87;;;510.20;;